Time;durP1;ratioP1;P1;durP2;ratioP2;P2;SDS_P1;SDS_P2;PMS_P1;PMS_P2;Temp;Humidity;BMP_temperature;BMP_pressure;BME280_temperature;BME280_humidity;BME280_pressure;Samples;Min_cycle;Max_cycle;Signal;HPM_P1;HPM_P2
2022/05/14 00:00:30;;;;;;;9.20;1.50;;;12.00;99.90;;;;;;5063546;28;20426;-73
2022/05/14 00:02:55;;;;;;;6.23;1.80;;;11.90;99.90;;;;;;5061336;28;20434;-73
2022/05/14 00:05:24;;;;;;;11.10;1.60;;;12.00;99.90;;;;;;5062116;28;20423;-73
2022/05/14 00:07:51;;;;;;;8.10;1.57;;;11.90;99.90;;;;;;5061375;28;20206;-73
2022/05/14 00:10:18;;;;;;;3.53;1.37;;;12.00;99.90;;;;;;5060634;28;21021;-73
2022/05/14 00:15:29;;;;;;;5.60;1.70;;;12.20;99.90;;;;;;5060446;28;20496;-73
2022/05/14 00:17:55;;;;;;;6.27;1.40;;;12.10;99.90;;;;;;5042135;28;20541;-72
2022/05/14 00:20:23;;;;;;;4.53;1.43;;;12.00;99.90;;;;;;5041791;28;20480;-73
2022/05/14 00:22:50;;;;;;;5.53;1.83;;;12.00;99.90;;;;;;5060322;28;20649;-73
2022/05/14 00:25:16;;;;;;;3.73;1.50;;;11.90;99.90;;;;;;5060167;28;20480;-73
2022/05/14 00:27:43;;;;;;;8.80;2.03;;;11.90;99.90;;;;;;5059763;28;20495;-73
2022/05/14 00:30:10;;;;;;;6.80;1.70;;;11.80;99.90;;;;;;5059397;28;20480;-73
2022/05/14 00:32:37;;;;;;;3.10;1.67;;;11.80;99.90;;;;;;5059035;28;20451;-74
2022/05/14 00:35:04;;;;;;;6.03;1.40;;;11.80;99.90;;;;;;5041453;28;20419;-73
2022/05/14 00:37:29;;;;;;;8.77;2.20;;;11.90;99.90;;;;;;5058444;28;20438;-73
2022/05/14 00:39:55;;;;;;;9.07;1.70;;;12.00;99.90;;;;;;5059367;28;20436;-73
2022/05/14 00:42:21;;;;;;;2.60;1.30;;;11.90;99.90;;;;;;5058270;28;20199;-73
2022/05/14 00:44:46;;;;;;;10.03;1.73;;;11.90;99.90;;;;;;5059630;28;20775;-72
2022/05/14 00:47:17;;;;;;;3.43;1.70;;;11.70;99.90;;;;;;5041463;28;20249;-73
2022/05/14 00:49:44;;;;;;;4.83;1.30;;;11.60;99.90;;;;;;5060088;28;20210;-73
2022/05/14 00:52:15;;;;;;;8.50;1.37;;;11.60;99.90;;;;;;5059362;28;20413;-73
2022/05/14 00:54:59;;;;;;;2.53;1.50;;;11.60;99.90;;;;;;5060413;28;21136;-72
2022/05/14 00:57:28;;;;;;;2.97;2.10;;;11.60;99.90;;;;;;5059807;28;20514;-73
2022/05/14 00:59:55;;;;;;;5.83;1.80;;;11.60;99.90;;;;;;5059626;28;20421;-72
2022/05/14 01:02:21;;;;;;;3.93;1.13;;;11.50;99.90;;;;;;5059223;28;20888;-73
2022/05/14 01:04:47;;;;;;;2.23;1.40;;;11.60;99.90;;;;;;5058159;28;20435;-73
2022/05/14 01:07:20;;;;;;;4.67;1.37;;;11.70;99.90;;;;;;5040499;28;20217;-73
2022/05/14 01:10:09;;;;;;;4.70;1.40;;;11.80;99.90;;;;;;5059049;28;20475;-73
2022/05/14 01:12:37;;;;;;;6.70;1.87;;;11.80;99.90;;;;;;5058893;28;20413;-73
2022/05/14 01:15:18;;;;;;;3.37;1.33;;;11.80;99.90;;;;;;5056402;28;20429;-73
2022/05/14 01:17:44;;;;;;;6.00;1.20;;;11.80;99.90;;;;;;5058314;28;20460;-73
2022/05/14 01:20:11;;;;;;;8.50;1.30;;;11.70;99.90;;;;;;5061756;28;20428;-73
2022/05/14 01:22:39;;;;;;;3.47;1.00;;;11.50;99.90;;;;;;5063475;28;20499;-73
2022/05/14 01:28:05;;;;;;;5.93;1.40;;;11.50;99.90;;;;;;5062933;28;20459;-73
2022/05/14 01:30:31;;;;;;;2.90;1.23;;;11.40;99.90;;;;;;5061802;28;20467;-73
2022/05/14 01:33:07;;;;;;;5.60;1.37;;;11.50;99.90;;;;;;5062659;28;20192;-73
2022/05/14 01:35:35;;;;;;;2.27;1.20;;;11.50;99.90;;;;;;5062706;28;20411;-73
2022/05/14 01:38:01;;;;;;;2.20;1.00;;;11.40;99.90;;;;;;5060966;28;20463;-73
2022/05/14 01:40:28;;;;;;;3.97;1.63;;;11.40;99.90;;;;;;5059687;28;20435;-73
2022/05/14 01:42:54;;;;;;;4.30;2.00;;;11.50;99.90;;;;;;5060418;28;20420;-72
2022/05/14 01:45:20;;;;;;;5.53;1.37;;;11.50;99.90;;;;;;5060876;28;20456;-73
2022/05/14 01:47:46;;;;;;;7.70;1.70;;;11.50;99.90;;;;;;5060910;28;20443;-73
2022/05/14 01:50:12;;;;;;;3.77;1.20;;;11.40;99.90;;;;;;5060746;28;20486;-73
2022/05/14 01:52:37;;;;;;;10.20;1.60;;;11.40;99.90;;;;;;5060292;28;20209;-73
2022/05/14 01:55:03;;;;;;;1.67;1.57;;;11.40;99.90;;;;;;5060104;28;20422;-72
2022/05/14 01:57:30;;;;;;;5.97;1.50;;;11.30;99.90;;;;;;5058113;28;20207;-72
2022/05/14 01:59:56;;;;;;;4.27;1.70;;;11.20;99.90;;;;;;5058688;28;20459;-72
2022/05/14 02:02:21;;;;;;;6.33;1.87;;;11.30;99.90;;;;;;5059035;28;20987;-72
2022/05/14 02:04:47;;;;;;;6.50;1.37;;;11.30;99.90;;;;;;5059550;28;20438;-72
2022/05/14 02:07:13;;;;;;;4.10;1.40;;;11.30;99.90;;;;;;5041311;28;20626;-72
2022/05/14 02:09:39;;;;;;;1.57;1.10;;;11.30;99.90;;;;;;5041457;28;20216;-72
2022/05/14 02:12:05;;;;;;;10.50;2.40;;;11.30;99.90;;;;;;5059072;28;20423;-73
2022/05/14 02:14:31;;;;;;;2.33;1.30;;;11.20;99.90;;;;;;5057121;28;20193;-72
2022/05/14 02:16:57;;;;;;;2.80;1.50;;;11.20;99.90;;;;;;5059626;28;20443;-72
2022/05/14 02:19:23;;;;;;;10.57;1.73;;;11.20;99.90;;;;;;5059639;28;20415;-73
2022/05/14 02:21:49;;;;;;;3.33;1.33;;;11.20;99.90;;;;;;5062241;28;20420;-73
2022/05/14 02:24:15;;;;;;;8.27;1.70;;;11.10;99.90;;;;;;5062834;28;20427;-73
2022/05/14 02:26:40;;;;;;;6.50;1.67;;;11.10;99.90;;;;;;5065249;28;20229;-73
2022/05/14 02:29:06;;;;;;;9.77;1.60;;;11.10;99.90;;;;;;5048188;28;20220;-73
2022/05/14 02:31:32;;;;;;;8.23;1.43;;;11.00;99.90;;;;;;5065992;28;20175;-73
2022/05/14 02:33:58;;;;;;;5.90;2.23;;;11.00;99.90;;;;;;5064483;28;20647;-73
2022/05/14 02:36:24;;;;;;;3.93;1.57;;;11.10;99.90;;;;;;5065772;28;20258;-73
2022/05/14 02:38:49;;;;;;;2.53;1.50;;;11.10;99.90;;;;;;5047653;28;20413;-72
2022/05/14 02:41:15;;;;;;;6.30;1.73;;;11.10;99.90;;;;;;5057430;28;20267;-72
2022/05/14 02:43:41;;;;;;;3.53;1.87;;;11.00;99.90;;;;;;5063283;28;20186;-72
2022/05/14 02:46:07;;;;;;;1.97;1.50;;;11.00;99.90;;;;;;5062731;28;20208;-73
2022/05/14 02:48:35;;;;;;;6.87;1.70;;;10.90;99.90;;;;;;5061076;28;20486;-72
2022/05/14 02:51:01;;;;;;;2.20;1.90;;;10.90;99.90;;;;;;5062878;28;20473;-72
2022/05/14 02:53:27;;;;;;;7.20;1.90;;;11.00;99.90;;;;;;5063050;28;21003;-73
2022/05/14 02:55:53;;;;;;;41.60;22.60;;;10.90;99.90;;;;;;5063212;28;20428;-72
2022/05/14 03:01:03;;;;;;;7.13;2.37;;;10.90;99.90;;;;;;5063426;28;20428;-72
2022/05/14 03:03:29;;;;;;;3.60;1.73;;;10.80;99.90;;;;;;5044442;28;20432;-72
2022/05/14 03:05:55;;;;;;;2.60;1.53;;;10.80;99.90;;;;;;5062716;28;20195;-72
2022/05/14 03:08:20;;;;;;;3.90;1.37;;;10.70;99.90;;;;;;5062614;28;20669;-72
2022/05/14 03:10:46;;;;;;;4.37;1.60;;;10.70;99.90;;;;;;5061723;28;20242;-72
2022/05/14 03:13:11;;;;;;;5.43;1.70;;;10.60;99.90;;;;;;5043368;28;20622;-73
2022/05/14 03:15:37;;;;;;;4.03;1.57;;;10.60;99.90;;;;;;5061512;28;20208;-72
2022/05/14 03:18:03;;;;;;;5.67;2.00;;;10.80;99.90;;;;;;5061449;28;20676;-73
2022/05/14 03:20:29;;;;;;;3.37;2.50;;;10.70;99.90;;;;;;5061825;28;20193;-73
2022/05/14 03:22:54;;;;;;;2.70;1.43;;;10.60;99.90;;;;;;5043015;28;20579;-72
2022/05/14 03:25:20;;;;;;;8.37;2.07;;;10.60;99.90;;;;;;5062134;28;20252;-73
2022/05/14 03:27:46;;;;;;;5.23;2.17;;;10.60;99.90;;;;;;5058235;28;20205;-72
2022/05/14 03:30:12;;;;;;;5.47;1.80;;;10.60;99.90;;;;;;5042779;28;20226;-73
2022/05/14 03:32:38;;;;;;;6.00;2.10;;;10.60;99.90;;;;;;5061390;28;20187;-72
2022/05/14 03:35:08;;;;;;;5.53;1.63;;;10.50;99.90;;;;;;5060125;28;20433;-72
2022/05/14 03:37:34;;;;;;;2.60;1.77;;;10.50;99.90;;;;;;5059285;28;20450;-72
2022/05/14 03:39:59;;;;;;;1.63;1.53;;;10.50;99.90;;;;;;5068087;22;20536;-72
2022/05/14 03:42:26;;;;;;;4.63;2.10;;;10.60;99.90;;;;;;5082938;23;20536;-72
2022/05/14 03:47:20;;;;;;;5.20;2.10;;;10.30;99.90;;;;;;5061466;22;20516;-72
2022/05/14 03:49:46;;;;;;;5.20;2.53;;;10.30;99.90;;;;;;5060580;28;20457;-72
2022/05/14 03:52:12;;;;;;;2.00;1.80;;;10.40;99.90;;;;;;5059270;28;20470;-73
2022/05/14 03:54:43;;;;;;;4.33;2.00;;;10.60;99.90;;;;;;5044231;28;20189;-72
2022/05/14 03:57:09;;;;;;;17.50;1.97;;;10.40;99.90;;;;;;5046278;28;20445;-72
2022/05/14 03:59:35;;;;;;;7.60;1.80;;;10.40;99.90;;;;;;5061798;28;20430;-73
2022/05/14 04:02:03;;;;;;;4.30;1.67;;;10.50;99.90;;;;;;5064818;28;20425;-73
2022/05/14 04:04:29;;;;;;;3.67;1.93;;;10.60;99.90;;;;;;5062314;28;20427;-73
2022/05/14 04:06:54;;;;;;;6.80;2.40;;;10.70;99.90;;;;;;5063138;28;20471;-72
2022/05/14 04:09:20;;;;;;;4.47;1.47;;;10.70;99.90;;;;;;5063149;28;20432;-72
2022/05/14 04:11:47;;;;;;;2.47;2.27;;;10.60;99.90;;;;;;5063902;28;20223;-72
2022/05/14 04:14:13;;;;;;;3.50;1.47;;;10.60;99.90;;;;;;5043410;28;20438;-72
2022/05/14 04:16:38;;;;;;;3.73;1.93;;;10.50;99.90;;;;;;5060603;28;20427;-72
2022/05/14 04:19:04;;;;;;;4.30;2.50;;;10.50;99.90;;;;;;5042130;28;20624;-72
2022/05/14 04:21:32;;;;;;;3.40;1.90;;;10.50;99.90;;;;;;5058588;28;20193;-72
2022/05/14 04:23:59;;;;;;;5.30;2.00;;;10.40;99.90;;;;;;5059732;28;20419;-72
2022/05/14 04:26:25;;;;;;;5.43;1.90;;;10.50;99.90;;;;;;5022989;28;20461;-72
2022/05/14 04:28:51;;;;;;;5.10;2.10;;;10.70;99.90;;;;;;5041910;28;20521;-72
2022/05/14 04:31:18;;;;;;;2.20;1.73;;;10.40;99.90;;;;;;5058922;28;20461;-72
2022/05/14 04:33:44;;;;;;;6.50;1.93;;;10.40;99.90;;;;;;5058071;28;20419;-71
2022/05/14 04:36:10;;;;;;;8.10;2.10;;;10.50;99.90;;;;;;5038322;28;20527;-72
2022/05/14 04:38:35;;;;;;;5.83;2.00;;;10.50;99.90;;;;;;5057575;28;20203;-72
2022/05/14 04:41:01;;;;;;;7.60;2.47;;;10.60;99.90;;;;;;5038822;28;20559;-72
2022/05/14 04:43:27;;;;;;;10.00;2.00;;;10.60;99.90;;;;;;5057380;28;20214;-72
2022/05/14 04:45:53;;;;;;;6.47;2.10;;;10.70;99.90;;;;;;5041379;28;20439;-73
2022/05/14 04:48:19;;;;;;;10.50;2.20;;;10.80;99.90;;;;;;5076587;28;20734;-72
2022/05/14 04:50:46;;;;;;;8.17;2.13;;;10.80;99.90;;;;;;5076559;28;20454;-72
2022/05/14 04:53:12;;;;;;;6.77;2.00;;;10.90;99.90;;;;;;5059911;28;20506;-72
2022/05/14 04:55:38;;;;;;;9.23;2.43;;;11.00;99.90;;;;;;5059872;28;20434;-73
2022/05/14 04:58:06;;;;;;;5.23;2.20;;;11.00;99.90;;;;;;5078284;28;20462;-72
2022/05/14 05:00:32;;;;;;;5.77;2.47;;;11.10;99.90;;;;;;5080212;28;20429;-72
2022/05/14 05:05:47;;;;;;;2.13;1.93;;;11.40;99.90;;;;;;5053489;28;20202;-71
2022/05/14 05:08:13;;;;;;;13.17;2.70;;;11.50;99.90;;;;;;5069006;28;21011;-71
2022/05/14 05:10:39;;;;;;;12.37;2.30;;;11.60;99.90;;;;;;5068622;28;21286;-71
2022/05/14 05:13:13;;;;;;;4.33;2.00;;;11.70;99.90;;;;;;5050800;28;20415;-71
2022/05/14 05:15:39;;;;;;;6.30;1.70;;;11.80;99.90;;;;;;5069331;28;20408;-71
2022/05/14 05:18:06;;;;;;;4.00;1.57;;;11.90;99.90;;;;;;5070203;28;20434;-71
2022/05/14 05:20:32;;;;;;;6.30;2.43;;;12.00;99.90;;;;;;5034915;28;20437;-71
2022/05/14 05:22:58;;;;;;;5.00;2.00;;;12.10;99.90;;;;;;5050500;28;20469;-72
2022/05/14 05:25:24;;;;;;;5.07;1.53;;;12.20;99.90;;;;;;5052861;28;21000;-72
2022/05/14 05:27:49;;;;;;;5.87;2.10;;;12.40;99.90;;;;;;5050839;28;20201;-71
2022/05/14 05:30:16;;;;;;;5.97;1.97;;;12.50;99.90;;;;;;5068484;28;20754;-71
2022/05/14 05:32:41;;;;;;;11.43;2.93;;;12.80;99.90;;;;;;5068674;28;20181;-71
2022/05/14 05:35:07;;;;;;;13.30;5.50;;;13.00;99.90;;;;;;5052424;28;20424;-71
2022/05/14 05:37:33;;;;;;;4.07;3.17;;;13.10;99.90;;;;;;5069267;28;20210;-71
2022/05/14 05:39:59;;;;;;;4.17;2.20;;;13.30;99.90;;;;;;5070054;28;20918;-71
2022/05/14 05:42:24;;;;;;;6.37;2.40;;;13.50;99.90;;;;;;5050582;28;20484;-71
2022/05/14 05:44:50;;;;;;;10.07;2.50;;;13.60;99.90;;;;;;5070221;28;20582;-71
2022/05/14 05:47:16;;;;;;;9.10;3.07;;;13.70;99.90;;;;;;5070967;28;20293;-71
2022/05/14 05:49:42;;;;;;;4.37;2.30;;;13.70;99.90;;;;;;5070534;28;20476;-71
2022/05/14 05:52:08;;;;;;;5.57;2.20;;;13.80;99.90;;;;;;5036194;28;20942;-71
2022/05/14 05:57:18;;;;;;;8.00;2.27;;;13.90;99.90;;;;;;5054189;28;20440;-71
2022/05/14 05:59:44;;;;;;;6.90;2.50;;;14.00;99.90;;;;;;5070194;28;20429;-71
2022/05/14 06:02:09;;;;;;;3.43;2.80;;;14.20;99.90;;;;;;5055458;28;20286;-71
2022/05/14 06:04:36;;;;;;;9.40;4.93;;;14.20;99.90;;;;;;5071940;28;20585;-71
2022/05/14 06:07:02;;;;;;;8.23;3.23;;;14.40;99.90;;;;;;5072106;28;20301;-71
2022/05/14 06:09:29;;;;;;;5.80;2.67;;;14.50;99.90;;;;;;5053695;28;20447;-71
2022/05/14 06:11:58;;;;;;;6.70;2.90;;;14.60;99.90;;;;;;5071819;28;20417;-71
2022/05/14 06:14:25;;;;;;;8.43;2.73;;;14.70;99.90;;;;;;5053614;28;20432;-71
2022/05/14 06:16:52;;;;;;;3.90;2.40;;;14.70;99.90;;;;;;5072256;28;20444;-72
2022/05/14 06:19:17;;;;;;;4.80;1.97;;;14.80;99.90;;;;;;5072421;28;20417;-72
2022/05/14 06:21:43;;;;;;;13.43;3.13;;;15.00;99.90;;;;;;5053866;28;20421;-71
2022/05/14 06:24:09;;;;;;;3.27;1.90;;;15.20;99.90;;;;;;5053340;28;20242;-72
2022/05/14 06:26:37;;;;;;;5.50;2.00;;;15.30;99.90;;;;;;5053060;28;20203;-71
2022/05/14 06:29:04;;;;;;;3.67;2.27;;;15.30;99.90;;;;;;5036568;28;20451;-71
2022/05/14 06:31:29;;;;;;;5.17;2.70;;;15.30;99.90;;;;;;5071202;28;20479;-72
2022/05/14 06:33:55;;;;;;;8.67;1.90;;;15.40;99.90;;;;;;5071580;28;20422;-71
2022/05/14 06:36:21;;;;;;;4.53;2.50;;;15.60;99.90;;;;;;5071344;28;20214;-71
2022/05/14 06:38:47;;;;;;;4.53;1.70;;;15.60;99.90;;;;;;5071754;28;20414;-71
2022/05/14 06:41:13;;;;;;;4.50;2.03;;;15.70;99.90;;;;;;5057765;28;20199;-71
2022/05/14 06:43:40;;;;;;;12.57;3.00;;;15.80;99.90;;;;;;5073489;28;20518;-72
2022/05/14 06:46:06;;;;;;;5.90;1.87;;;15.90;99.90;;;;;;5070952;28;20481;-71
2022/05/14 06:48:32;;;;;;;4.20;2.40;;;15.90;99.90;;;;;;5070908;28;20415;-69
2022/05/14 06:51:05;;;;;;;11.90;2.20;;;16.00;99.90;;;;;;5070824;28;20242;-65
2022/05/14 06:53:36;;;;;;;3.57;2.00;;;16.00;99.90;;;;;;5070946;28;20500;-69
2022/05/14 06:56:02;;;;;;;3.43;2.07;;;16.10;99.90;;;;;;5053366;28;20425;-69
2022/05/14 06:58:36;;;;;;;6.83;2.30;;;16.10;99.90;;;;;;5070986;28;20415;-71
2022/05/14 07:01:03;;;;;;;5.53;1.80;;;16.30;99.90;;;;;;5053019;28;20451;-71
2022/05/14 07:09:00;;;;;;;4.70;3.00;;;16.40;99.90;;;;;;5055580;28;20802;-71
2022/05/14 07:11:26;;;;;;;4.13;2.03;;;16.40;99.90;;;;;;5069456;28;21362;-71
2022/05/14 07:13:52;;;;;;;4.67;2.37;;;16.50;99.90;;;;;;5070492;28;20427;-71
2022/05/14 07:16:18;;;;;;;4.93;1.90;;;16.60;99.90;;;;;;5052290;28;20276;-71
2022/05/14 07:18:44;;;;;;;4.33;2.27;;;16.70;99.90;;;;;;5070439;28;20422;-71
2022/05/14 07:21:10;;;;;;;3.53;1.90;;;16.70;99.90;;;;;;5070474;28;20411;-71
2022/05/14 07:23:36;;;;;;;6.57;2.23;;;16.70;99.90;;;;;;5070281;28;20476;-71
2022/05/14 07:26:06;;;;;;;6.83;2.33;;;16.70;99.90;;;;;;5051044;28;20450;-71
2022/05/14 07:28:34;;;;;;;4.10;2.20;;;16.80;99.90;;;;;;5070494;28;20293;-71
2022/05/14 07:31:01;;;;;;;5.03;1.93;;;16.80;99.90;;;;;;5070637;28;20467;-70
2022/05/14 07:33:27;;;;;;;5.43;2.03;;;16.90;99.90;;;;;;5052193;28;20432;-71
2022/05/14 07:35:54;;;;;;;5.33;1.83;;;17.00;99.90;;;;;;5052284;28;20416;-71
2022/05/14 07:38:20;;;;;;;1.97;1.70;;;17.10;99.90;;;;;;5052564;28;20939;-71
2022/05/14 07:40:46;;;;;;;10.07;2.27;;;17.20;99.90;;;;;;5052148;28;20409;-72
2022/05/14 07:43:19;;;;;;;12.20;2.17;;;17.30;99.90;;;;;;5070264;28;20896;-71
2022/05/14 07:45:50;;;;;;;4.00;1.77;;;17.30;99.90;;;;;;5051886;28;20280;-71
2022/05/14 07:48:20;;;;;;;3.10;1.50;;;17.40;99.90;;;;;;5070002;28;20555;-73
2022/05/14 07:50:46;;;;;;;3.10;1.63;;;17.50;99.90;;;;;;5035866;28;20487;-73
2022/05/14 07:53:14;;;;;;;4.47;1.97;;;17.60;99.90;;;;;;5051936;28;20417;-73
2022/05/14 07:55:41;;;;;;;5.40;2.43;;;17.60;99.90;;;;;;5070024;28;20797;-73
2022/05/14 07:58:07;;;;;;;3.63;1.80;;;17.70;99.90;;;;;;5052015;28;20463;-73
2022/05/14 08:00:33;;;;;;;4.60;1.93;;;17.70;99.90;;;;;;5052207;28;20517;-73
2022/05/14 08:02:58;;;;;;;6.30;2.17;;;17.90;99.90;;;;;;5052218;28;20868;-74
2022/05/14 08:05:24;;;;;;;3.90;1.80;;;17.90;99.90;;;;;;5035541;28;20659;-73
2022/05/14 08:07:50;;;;;;;4.60;1.80;;;18.00;99.90;;;;;;5070265;28;20290;-73
2022/05/14 08:10:16;;;;;;;4.90;2.13;;;18.10;99.90;;;;;;5070502;28;20730;-73
2022/05/14 08:12:53;;;;;;;4.77;2.20;;;18.20;99.90;;;;;;5052223;28;20706;-74
2022/05/14 08:15:21;;;;;;;7.13;2.87;;;18.30;99.90;;;;;;5070163;28;20422;-73
2022/05/14 08:17:47;;;;;;;8.43;2.43;;;18.40;99.90;;;;;;5069974;28;20442;-73
2022/05/14 08:20:14;;;;;;;3.03;1.87;;;18.50;99.90;;;;;;5051895;28;20443;-73
2022/05/14 08:25:25;;;;;;;10.33;2.30;;;18.70;99.90;;;;;;5070506;28;20431;-73
2022/05/14 08:27:51;;;;;;;8.30;2.27;;;18.90;99.90;;;;;;5052235;28;20983;-73
2022/05/14 08:30:24;;;;;;;10.10;2.93;;;19.00;99.90;;;;;;5035119;28;20467;-74
2022/05/14 08:32:50;;;;;;;8.83;3.00;;;19.10;99.90;;;;;;5069665;28;20179;-73
2022/05/14 08:35:17;;;;;;;6.30;2.10;;;19.20;99.90;;;;;;5069291;28;20413;-73
2022/05/14 08:37:42;;;;;;;5.50;2.00;;;19.30;99.90;;;;;;5051238;28;20462;-73
2022/05/14 08:40:10;;;;;;;4.67;2.10;;;19.50;99.90;;;;;;5069017;28;20425;-73
2022/05/14 08:42:38;;;;;;;4.73;2.07;;;19.60;99.90;;;;;;5068987;28;20205;-73
2022/05/14 08:45:04;;;;;;;5.83;2.27;;;19.70;99.90;;;;;;5068805;28;20511;-73
2022/05/14 08:47:40;;;;;;;4.40;1.50;;;20.00;99.90;;;;;;5068595;28;20460;-73
2022/05/14 08:50:08;;;;;;;3.47;1.90;;;20.30;99.90;;;;;;5068715;28;20471;-73
2022/05/14 08:52:36;;;;;;;3.40;1.17;;;20.50;99.90;;;;;;5068730;28;20440;-73
2022/05/14 08:55:16;;;;;;;9.30;1.33;;;20.60;95.90;;;;;;5050675;28;20602;-73
2022/05/14 08:57:54;;;;;;;3.10;1.40;;;20.90;92.10;;;;;;5069093;28;20436;-73
2022/05/14 09:00:22;;;;;;;3.43;1.30;;;21.00;93.80;;;;;;5050493;28;20511;-73
2022/05/14 09:02:51;;;;;;;4.00;1.60;;;21.20;93.90;;;;;;5068706;28;20416;-73
2022/05/14 09:05:43;;;;;;;10.67;1.57;;;21.40;95.40;;;;;;5068610;28;20452;-73
2022/05/14 09:08:09;;;;;;;4.50;1.10;;;21.70;94.40;;;;;;5063390;28;20449;-74
2022/05/14 09:10:38;;;;;;;5.23;2.53;;;22.00;93.30;;;;;;5068422;28;20457;-73
2022/05/14 09:13:16;;;;;;;8.07;1.70;;;22.10;93.00;;;;;;5050381;28;20186;-73
2022/05/14 09:16:02;;;;;;;4.00;1.63;;;22.40;93.50;;;;;;5050772;28;20428;-73
2022/05/14 09:18:32;;;;;;;7.37;2.07;;;22.70;92.10;;;;;;5050824;28;20418;-73
2022/05/14 09:21:05;;;;;;;6.93;2.10;;;23.00;91.80;;;;;;5068990;28;20521;-73
2022/05/14 09:23:41;;;;;;;9.47;1.80;;;23.20;92.60;;;;;;5050879;28;20433;-73
2022/05/14 09:26:19;;;;;;;6.57;1.77;;;23.40;91.00;;;;;;5051389;28;20429;-73
2022/05/14 09:28:52;;;;;;;4.23;1.27;;;23.60;91.70;;;;;;5052041;28;20909;-73
2022/05/14 09:31:36;;;;;;;4.10;1.40;;;23.60;88.50;;;;;;5051541;28;20982;-73
2022/05/14 09:34:04;;;;;;;4.13;1.60;;;23.90;90.40;;;;;;5068458;28;20422;-74
2022/05/14 09:36:31;;;;;;;4.70;1.57;;;24.10;85.90;;;;;;5068021;28;20816;-73
2022/05/14 09:39:10;;;;;;;5.00;1.20;;;24.30;84.30;;;;;;5050435;28;20415;-73
2022/05/14 09:41:56;;;;;;;7.03;2.10;;;24.40;83.70;;;;;;5050309;28;20412;-72
2022/05/14 09:44:26;;;;;;;4.50;1.77;;;24.40;81.30;;;;;;5050079;28;20436;-72
2022/05/14 09:47:03;;;;;;;4.60;1.50;;;24.60;83.10;;;;;;5068138;28;20503;-72
2022/05/14 09:49:29;;;;;;;6.70;1.70;;;24.60;80.40;;;;;;5068031;28;20918;-72
2022/05/14 09:52:04;;;;;;;2.30;1.40;;;24.70;78.90;;;;;;5068088;28;20421;-74
2022/05/14 09:54:42;;;;;;;4.43;2.17;;;24.70;80.80;;;;;;5068096;28;20617;-71
2022/05/14 09:57:33;;;;;;;5.53;1.47;;;24.80;77.80;;;;;;5068231;28;20821;-72
2022/05/14 10:00:10;;;;;;;4.57;1.70;;;24.90;80.00;;;;;;5068322;28;20423;-72
2022/05/14 10:02:47;;;;;;;2.87;1.33;;;24.90;73.60;;;;;;5068600;28;20451;-71
2022/05/14 10:05:43;;;;;;;8.30;1.50;;;25.00;78.30;;;;;;5050217;28;20590;-72
2022/05/14 10:08:33;;;;;;;9.67;1.60;;;25.50;78.40;;;;;;5049999;28;20447;-72
2022/05/14 10:11:18;;;;;;;5.53;1.73;;;25.70;75.00;;;;;;5068102;28;20525;-71
2022/05/14 10:14:00;;;;;;;5.17;1.93;;;25.70;74.60;;;;;;5068227;28;20412;-71
2022/05/14 10:16:59;;;;;;;3.33;1.70;;;25.80;74.70;;;;;;5068285;28;20430;-72
2022/05/14 10:20:05;;;;;;;5.23;1.70;;;25.70;75.00;;;;;;5068368;28;20409;-71
2022/05/14 10:28:53;;;;;;;4.10;1.97;;;26.10;79.90;;;;;;5068424;28;21010;-72
2022/05/14 10:31:50;;;;;;;3.63;2.17;;;26.20;77.20;;;;;;5050145;28;20559;-71
2022/05/14 10:34:45;;;;;;;5.87;2.40;;;26.40;79.10;;;;;;5049848;28;20426;-72
2022/05/14 10:37:20;;;;;;;5.77;2.10;;;26.40;72.20;;;;;;5067983;28;20437;-71
2022/05/14 10:40:13;;;;;;;4.50;1.90;;;26.30;73.60;;;;;;5049900;28;20478;-71
2022/05/14 10:42:57;;;;;;;6.60;2.27;;;26.60;77.70;;;;;;5068303;28;20441;-72
2022/05/14 10:45:32;;;;;;;4.50;2.17;;;26.70;75.90;;;;;;5068230;28;20412;-73
2022/05/14 10:48:28;;;;;;;5.93;2.57;;;26.70;75.40;;;;;;5054401;28;20956;-73
2022/05/14 10:50:54;;;;;;;3.47;1.80;;;26.60;72.10;;;;;;5072511;28;20472;-74
2022/05/14 10:53:20;;;;;;;5.70;2.40;;;26.30;74.00;;;;;;5072766;28;20413;-74
2022/05/14 10:55:58;;;;;;;10.83;3.13;;;26.50;70.60;;;;;;5072061;28;21011;-74
2022/05/14 10:58:39;;;;;;;3.67;1.80;;;26.80;75.20;;;;;;5072172;28;20413;-73
2022/05/14 11:01:27;;;;;;;5.37;2.13;;;27.00;73.60;;;;;;5071966;28;20420;-74
2022/05/14 11:04:13;;;;;;;4.77;2.20;;;27.00;73.50;;;;;;5071214;28;20834;-73
2022/05/14 11:07:34;;;;;;;7.07;1.60;;;27.00;71.50;;;;;;5071320;28;20797;-73
2022/05/14 11:10:17;;;;;;;10.87;2.13;;;27.30;71.30;;;;;;5065240;28;20842;-74
2022/05/14 11:12:44;;;;;;;5.50;2.10;;;27.20;70.80;;;;;;5070681;28;20441;-74
2022/05/14 11:15:28;;;;;;;3.87;1.77;;;27.30;70.00;;;;;;5052575;28;20432;-74
2022/05/14 11:18:07;;;;;;;4.80;1.67;;;27.20;68.10;;;;;;5052465;28;20433;-74
2022/05/14 11:20:33;;;;;;;8.33;1.50;;;27.30;65.20;;;;;;5070558;28;20453;-73
2022/05/14 11:23:10;;;;;;;2.90;1.80;;;27.20;58.20;;;;;;5070577;28;21097;-73
2022/05/14 11:25:37;;;;;;;4.80;1.87;;;27.40;63.80;;;;;;5070309;28;20417;-73
2022/05/14 11:28:06;;;;;;;4.10;1.60;;;27.00;58.50;;;;;;5035635;28;20449;-74
2022/05/14 11:30:40;;;;;;;5.80;1.60;;;27.20;60.10;;;;;;5070101;28;20454;-73
2022/05/14 11:33:25;;;;;;;2.67;1.60;;;27.20;66.50;;;;;;5070179;28;20413;-73
2022/05/14 11:35:54;;;;;;;6.90;1.70;;;27.40;68.50;;;;;;5070153;28;20505;-74
2022/05/14 11:38:26;;;;;;;9.50;2.03;;;27.50;64.50;;;;;;5051953;28;20417;-74
2022/05/14 11:41:31;;;;;;;3.37;1.33;;;27.40;62.30;;;;;;5070087;28;20482;-74
2022/05/14 11:43:57;;;;;;;2.83;1.60;;;27.40;62.50;;;;;;5070014;28;20463;-74
2022/05/14 11:46:28;;;;;;;2.70;1.57;;;27.50;58.80;;;;;;5069950;28;20490;-73
2022/05/14 11:48:57;;;;;;;2.53;1.40;;;27.60;63.80;;;;;;5051864;28;20429;-73
2022/05/14 11:51:22;;;;;;;3.17;1.80;;;27.60;66.90;;;;;;5069828;28;20493;-74
2022/05/14 11:54:05;;;;;;;3.03;1.93;;;27.70;63.00;;;;;;5069750;28;20499;-73
2022/05/14 11:57:27;;;;;;;2.97;1.60;;;27.60;61.90;;;;;;5069624;28;20255;-74
2022/05/14 12:00:14;;;;;;;7.83;1.57;;;27.80;62.80;;;;;;4968448;28;20517;-74
2022/05/14 12:03:00;;;;;;;3.10;1.50;;;27.70;62.30;;;;;;5062701;28;20467;-74
2022/05/14 12:05:53;;;;;;;5.10;2.20;;;27.70;61.60;;;;;;5051429;28;20520;-73
2022/05/14 12:08:43;;;;;;;4.97;2.13;;;27.70;61.70;;;;;;5051618;28;20420;-74
2022/05/14 12:11:40;;;;;;;2.97;1.70;;;27.60;62.60;;;;;;5069523;28;20456;-74
2022/05/14 12:14:26;;;;;;;7.27;1.80;;;27.60;61.30;;;;;;5069555;28;20439;-73
2022/05/14 12:16:56;;;;;;;4.60;1.53;;;27.80;61.70;;;;;;5069072;28;20468;-74
2022/05/14 12:19:34;;;;;;;6.20;1.73;;;27.90;62.20;;;;;;5069263;28;20932;-73
2022/05/14 12:22:15;;;;;;;4.73;1.47;;;27.90;60.40;;;;;;5069351;28;20913;-73
2022/05/14 12:24:55;;;;;;;1.90;1.30;;;27.90;62.30;;;;;;5051067;28;20425;-75
2022/05/14 12:27:21;;;;;;;2.03;1.40;;;27.90;60.60;;;;;;5069619;28;20433;-74
2022/05/14 12:33:11;;;;;;;2.13;1.83;;;27.70;61.60;;;;;;5071163;28;20417;-74
2022/05/14 12:33:12;;;;;;;4.40;1.90;;;28.00;65.80;;;;;;5070710;28;20195;-74
2022/05/14 12:35:43;;;;;;;3.73;1.60;;;28.20;58.80;;;;;;5039300;28;20528;-74
2022/05/14 12:38:13;;;;;;;3.73;1.60;;;28.20;58.60;;;;;;5072146;28;20433;-74
2022/05/14 12:40:39;;;;;;;2.23;1.83;;;28.30;58.60;;;;;;5072725;28;20427;-74
2022/05/14 12:43:08;;;;;;;1.80;1.40;;;28.20;57.30;;;;;;5072506;28;20796;-74
2022/05/14 12:45:40;;;;;;;2.60;1.10;;;28.20;57.90;;;;;;5052808;28;20917;-74
2022/05/14 12:48:08;;;;;;;8.00;2.50;;;28.20;58.60;;;;;;5069572;28;20560;-74
2022/05/14 12:50:34;;;;;;;5.17;2.17;;;28.30;60.70;;;;;;5052321;28;20511;-74
2022/05/14 12:53:11;;;;;;;3.90;1.73;;;28.40;62.30;;;;;;5070412;28;20437;-74
2022/05/14 12:55:45;;;;;;;2.53;1.33;;;28.30;59.50;;;;;;5052573;28;20422;-74
2022/05/14 12:58:12;;;;;;;4.00;1.70;;;28.30;57.40;;;;;;5069487;28;20964;-75
2022/05/14 13:00:40;;;;;;;7.67;1.40;;;28.30;59.30;;;;;;5021598;28;20467;-73
2022/05/14 13:03:32;;;;;;;3.13;1.73;;;28.20;59.70;;;;;;5068688;28;20413;-72
2022/05/14 13:06:00;;;;;;;3.73;1.70;;;28.30;59.90;;;;;;5068602;28;20418;-72
2022/05/14 13:08:27;;;;;;;2.80;1.77;;;28.30;58.20;;;;;;5068785;28;20452;-72
2022/05/14 13:10:58;;;;;;;4.20;1.77;;;28.30;59.30;;;;;;5067732;28;20515;-71
2022/05/14 13:13:35;;;;;;;6.43;2.03;;;28.30;59.70;;;;;;5068638;28;20425;-73
2022/05/14 13:16:10;;;;;;;7.27;1.67;;;28.10;60.20;;;;;;5033728;28;20433;-72
2022/05/14 13:18:43;;;;;;;10.23;1.80;;;28.10;60.50;;;;;;5050248;28;20924;-72
2022/05/14 13:21:16;;;;;;;4.40;1.53;;;27.80;58.10;;;;;;5068989;28;20479;-72
2022/05/14 13:24:02;;;;;;;4.10;1.37;;;27.90;62.20;;;;;;5068395;28;20418;-72
2022/05/14 13:26:49;;;;;;;3.80;1.43;;;27.90;60.80;;;;;;5050005;28;20455;-72
2022/05/14 13:29:16;;;;;;;3.23;1.40;;;28.00;62.80;;;;;;5068287;28;20903;-73
2022/05/14 13:31:44;;;;;;;7.50;1.87;;;28.00;61.50;;;;;;5068275;28;20464;-73
2022/05/14 13:37:13;;;;;;;5.50;1.90;;;27.90;61.10;;;;;;5068657;28;20548;-72